sensor_id;sensor_type;location;lat;lon;timestamp;P1;durP1;ratioP1;P2;durP2;ratioP2
16804;SDS011;8520;50.102;20.010;2022-07-23T00:01:35;18.40;;;16.83;;
16804;SDS011;8520;50.102;20.010;2022-07-23T00:04:25;18.73;;;17.00;;
16804;SDS011;8520;50.102;20.010;2022-07-23T00:07:13;24.40;;;17.02;;
16804;SDS011;8520;50.102;20.010;2022-07-23T00:10:01;17.10;;;15.65;;
16804;SDS011;8520;50.102;20.010;2022-07-23T00:12:50;19.15;;;17.58;;
16804;SDS011;8520;50.102;20.010;2022-07-23T00:15:39;19.73;;;18.30;;
16804;SDS011;8520;50.102;20.010;2022-07-23T00:18:27;23.30;;;21.30;;
16804;SDS011;8520;50.102;20.010;2022-07-23T00:21:17;21.10;;;19.50;;
16804;SDS011;8520;50.102;20.010;2022-07-23T00:24:06;21.75;;;19.95;;
16804;SDS011;8520;50.102;20.010;2022-07-23T00:26:54;20.38;;;18.95;;
16804;SDS011;8520;50.102;20.010;2022-07-23T00:29:43;21.45;;;19.58;;
16804;SDS011;8520;50.102;20.010;2022-07-23T00:32:31;20.27;;;18.77;;
16804;SDS011;8520;50.102;20.010;2022-07-23T00:35:40;18.40;;;17.17;;
16804;SDS011;8520;50.102;20.010;2022-07-23T00:38:31;21.55;;;19.83;;
16804;SDS011;8520;50.102;20.010;2022-07-23T00:41:19;22.77;;;20.52;;
16804;SDS011;8520;50.102;20.010;2022-07-23T00:44:14;20.02;;;18.60;;
16804;SDS011;8520;50.102;20.010;2022-07-23T00:47:04;20.83;;;18.88;;
16804;SDS011;8520;50.102;20.010;2022-07-23T00:49:54;19.70;;;18.13;;
16804;SDS011;8520;50.102;20.010;2022-07-23T00:52:43;18.90;;;17.15;;
16804;SDS011;8520;50.102;20.010;2022-07-23T00:55:33;17.67;;;16.58;;
16804;SDS011;8520;50.102;20.010;2022-07-23T00:58:22;17.88;;;16.33;;
16804;SDS011;8520;50.102;20.010;2022-07-23T01:01:11;16.92;;;15.63;;
16804;SDS011;8520;50.102;20.010;2022-07-23T01:03:59;16.40;;;15.18;;
16804;SDS011;8520;50.102;20.010;2022-07-23T01:06:48;16.85;;;15.05;;
16804;SDS011;8520;50.102;20.010;2022-07-23T01:09:37;15.75;;;14.45;;
16804;SDS011;8520;50.102;20.010;2022-07-23T01:12:27;14.80;;;13.68;;
16804;SDS011;8520;50.102;20.010;2022-07-23T01:15:16;15.38;;;14.13;;
16804;SDS011;8520;50.102;20.010;2022-07-23T01:18:05;14.77;;;13.57;;
16804;SDS011;8520;50.102;20.010;2022-07-23T01:20:56;14.18;;;13.00;;
16804;SDS011;8520;50.102;20.010;2022-07-23T01:23:46;14.20;;;13.00;;
16804;SDS011;8520;50.102;20.010;2022-07-23T01:26:35;14.02;;;12.93;;
16804;SDS011;8520;50.102;20.010;2022-07-23T01:29:24;14.73;;;13.52;;
16804;SDS011;8520;50.102;20.010;2022-07-23T01:32:13;13.95;;;12.85;;
16804;SDS011;8520;50.102;20.010;2022-07-23T01:35:02;13.77;;;12.85;;
16804;SDS011;8520;50.102;20.010;2022-07-23T01:37:51;14.98;;;13.85;;
16804;SDS011;8520;50.102;20.010;2022-07-23T01:40:41;15.35;;;13.82;;
16804;SDS011;8520;50.102;20.010;2022-07-23T01:43:32;15.75;;;14.55;;
16804;SDS011;8520;50.102;20.010;2022-07-23T01:46:21;16.48;;;15.07;;
16804;SDS011;8520;50.102;20.010;2022-07-23T01:49:09;15.82;;;14.73;;
16804;SDS011;8520;50.102;20.010;2022-07-23T01:52:17;16.70;;;15.27;;
16804;SDS011;8520;50.102;20.010;2022-07-23T01:55:08;16.85;;;15.48;;
16804;SDS011;8520;50.102;20.010;2022-07-23T01:58:07;17.55;;;16.13;;
16804;SDS011;8520;50.102;20.010;2022-07-23T02:00:55;17.98;;;16.38;;
16804;SDS011;8520;50.102;20.010;2022-07-23T02:03:44;18.17;;;16.75;;
16804;SDS011;8520;50.102;20.010;2022-07-23T02:06:33;18.77;;;17.20;;
16804;SDS011;8520;50.102;20.010;2022-07-23T02:09:22;19.67;;;18.17;;
16804;SDS011;8520;50.102;20.010;2022-07-23T02:12:10;18.05;;;16.85;;
16804;SDS011;8520;50.102;20.010;2022-07-23T02:15:00;19.35;;;17.95;;
16804;SDS011;8520;50.102;20.010;2022-07-23T02:17:48;20.00;;;18.35;;
16804;SDS011;8520;50.102;20.010;2022-07-23T02:20:37;19.92;;;18.42;;
16804;SDS011;8520;50.102;20.010;2022-07-23T02:23:27;18.98;;;17.55;;
16804;SDS011;8520;50.102;20.010;2022-07-23T02:26:15;19.50;;;18.10;;
16804;SDS011;8520;50.102;20.010;2022-07-23T02:29:09;20.13;;;18.35;;
16804;SDS011;8520;50.102;20.010;2022-07-23T02:31:59;21.05;;;19.27;;
16804;SDS011;8520;50.102;20.010;2022-07-23T02:34:48;20.80;;;19.17;;
16804;SDS011;8520;50.102;20.010;2022-07-23T02:37:37;20.48;;;18.95;;
16804;SDS011;8520;50.102;20.010;2022-07-23T02:40:26;20.73;;;19.27;;
16804;SDS011;8520;50.102;20.010;2022-07-23T02:43:14;20.38;;;18.90;;
16804;SDS011;8520;50.102;20.010;2022-07-23T02:46:04;20.25;;;18.83;;
16804;SDS011;8520;50.102;20.010;2022-07-23T02:48:54;20.63;;;19.33;;
16804;SDS011;8520;50.102;20.010;2022-07-23T02:51:43;21.52;;;19.90;;
16804;SDS011;8520;50.102;20.010;2022-07-23T02:54:31;21.30;;;19.73;;
16804;SDS011;8520;50.102;20.010;2022-07-23T02:57:22;21.08;;;19.52;;
16804;SDS011;8520;50.102;20.010;2022-07-23T03:00:11;21.95;;;20.15;;
16804;SDS011;8520;50.102;20.010;2022-07-23T03:03:00;23.65;;;21.73;;
16804;SDS011;8520;50.102;20.010;2022-07-23T03:05:51;22.98;;;21.42;;
16804;SDS011;8520;50.102;20.010;2022-07-23T03:08:39;23.48;;;22.02;;
16804;SDS011;8520;50.102;20.010;2022-07-23T03:11:28;24.13;;;22.52;;
16804;SDS011;8520;50.102;20.010;2022-07-23T03:14:17;25.20;;;23.23;;
16804;SDS011;8520;50.102;20.010;2022-07-23T03:17:05;25.65;;;23.75;;
16804;SDS011;8520;50.102;20.010;2022-07-23T03:19:55;26.40;;;24.42;;
16804;SDS011;8520;50.102;20.010;2022-07-23T03:22:45;25.25;;;23.52;;
16804;SDS011;8520;50.102;20.010;2022-07-23T03:25:35;26.08;;;24.10;;
16804;SDS011;8520;50.102;20.010;2022-07-23T03:28:24;25.73;;;24.13;;
16804;SDS011;8520;50.102;20.010;2022-07-23T03:31:12;26.15;;;24.20;;
16804;SDS011;8520;50.102;20.010;2022-07-23T03:34:01;26.23;;;24.33;;
16804;SDS011;8520;50.102;20.010;2022-07-23T03:36:50;25.25;;;23.55;;
16804;SDS011;8520;50.102;20.010;2022-07-23T03:39:40;26.00;;;24.23;;
16804;SDS011;8520;50.102;20.010;2022-07-23T03:42:28;26.95;;;24.92;;
16804;SDS011;8520;50.102;20.010;2022-07-23T03:45:17;27.10;;;25.25;;
16804;SDS011;8520;50.102;20.010;2022-07-23T03:48:05;30.42;;;28.40;;
16804;SDS011;8520;50.102;20.010;2022-07-23T03:50:54;28.20;;;26.40;;
16804;SDS011;8520;50.102;20.010;2022-07-23T03:53:42;29.67;;;27.45;;
16804;SDS011;8520;50.102;20.010;2022-07-23T03:56:32;29.23;;;27.17;;
16804;SDS011;8520;50.102;20.010;2022-07-23T03:59:20;30.73;;;28.63;;
16804;SDS011;8520;50.102;20.010;2022-07-23T04:02:10;30.77;;;28.60;;
16804;SDS011;8520;50.102;20.010;2022-07-23T04:04:58;30.65;;;28.52;;
16804;SDS011;8520;50.102;20.010;2022-07-23T04:07:47;32.55;;;30.20;;
16804;SDS011;8520;50.102;20.010;2022-07-23T04:10:37;33.95;;;31.55;;
16804;SDS011;8520;50.102;20.010;2022-07-23T04:13:29;32.40;;;29.65;;
16804;SDS011;8520;50.102;20.010;2022-07-23T04:16:21;31.65;;;28.95;;
16804;SDS011;8520;50.102;20.010;2022-07-23T04:19:09;27.35;;;25.25;;
16804;SDS011;8520;50.102;20.010;2022-07-23T04:22:11;26.65;;;24.95;;
16804;SDS011;8520;50.102;20.010;2022-07-23T04:25:01;27.10;;;24.80;;
16804;SDS011;8520;50.102;20.010;2022-07-23T04:27:50;23.73;;;21.92;;
16804;SDS011;8520;50.102;20.010;2022-07-23T04:30:40;24.38;;;22.58;;
16804;SDS011;8520;50.102;20.010;2022-07-23T04:33:29;24.70;;;22.77;;
16804;SDS011;8520;50.102;20.010;2022-07-23T04:36:22;25.63;;;23.73;;
16804;SDS011;8520;50.102;20.010;2022-07-23T04:39:10;24.73;;;22.85;;
16804;SDS011;8520;50.102;20.010;2022-07-23T04:42:00;23.90;;;22.38;;
16804;SDS011;8520;50.102;20.010;2022-07-23T04:44:50;24.50;;;22.80;;
16804;SDS011;8520;50.102;20.010;2022-07-23T04:47:40;23.75;;;22.08;;
16804;SDS011;8520;50.102;20.010;2022-07-23T04:50:31;23.08;;;21.25;;
16804;SDS011;8520;50.102;20.010;2022-07-23T04:53:19;23.45;;;21.83;;
16804;SDS011;8520;50.102;20.010;2022-07-23T04:56:10;22.52;;;20.83;;
16804;SDS011;8520;50.102;20.010;2022-07-23T04:58:58;21.33;;;19.55;;
16804;SDS011;8520;50.102;20.010;2022-07-23T05:01:48;19.88;;;18.38;;
16804;SDS011;8520;50.102;20.010;2022-07-23T05:04:38;19.05;;;17.75;;
16804;SDS011;8520;50.102;20.010;2022-07-23T05:07:27;19.48;;;18.00;;
16804;SDS011;8520;50.102;20.010;2022-07-23T05:10:16;21.13;;;19.35;;
16804;SDS011;8520;50.102;20.010;2022-07-23T05:13:04;20.65;;;19.27;;
16804;SDS011;8520;50.102;20.010;2022-07-23T05:15:53;20.85;;;19.40;;
16804;SDS011;8520;50.102;20.010;2022-07-23T05:18:43;19.98;;;18.35;;
16804;SDS011;8520;50.102;20.010;2022-07-23T05:21:33;21.13;;;19.38;;
16804;SDS011;8520;50.102;20.010;2022-07-23T05:24:21;21.45;;;19.80;;
16804;SDS011;8520;50.102;20.010;2022-07-23T05:27:10;21.08;;;19.67;;
16804;SDS011;8520;50.102;20.010;2022-07-23T05:29:59;20.63;;;19.27;;
16804;SDS011;8520;50.102;20.010;2022-07-23T05:32:51;21.10;;;19.60;;
16804;SDS011;8520;50.102;20.010;2022-07-23T05:35:39;21.45;;;19.60;;
16804;SDS011;8520;50.102;20.010;2022-07-23T05:38:41;20.45;;;18.95;;
16804;SDS011;8520;50.102;20.010;2022-07-23T05:41:29;20.65;;;19.05;;
16804;SDS011;8520;50.102;20.010;2022-07-23T05:44:18;21.80;;;20.33;;
16804;SDS011;8520;50.102;20.010;2022-07-23T05:47:07;20.23;;;18.73;;
16804;SDS011;8520;50.102;20.010;2022-07-23T05:49:57;21.08;;;19.38;;
16804;SDS011;8520;50.102;20.010;2022-07-23T05:52:57;20.30;;;18.55;;
16804;SDS011;8520;50.102;20.010;2022-07-23T05:55:50;20.98;;;19.33;;
16804;SDS011;8520;50.102;20.010;2022-07-23T05:58:38;20.95;;;19.52;;
16804;SDS011;8520;50.102;20.010;2022-07-23T06:01:27;20.65;;;18.98;;
16804;SDS011;8520;50.102;20.010;2022-07-23T06:04:24;20.02;;;18.52;;
16804;SDS011;8520;50.102;20.010;2022-07-23T06:07:30;21.17;;;19.13;;
16804;SDS011;8520;50.102;20.010;2022-07-23T06:10:19;20.90;;;19.10;;
16804;SDS011;8520;50.102;20.010;2022-07-23T06:13:09;19.27;;;17.85;;
16804;SDS011;8520;50.102;20.010;2022-07-23T06:15:58;19.75;;;18.33;;
16804;SDS011;8520;50.102;20.010;2022-07-23T06:18:46;19.58;;;18.20;;
16804;SDS011;8520;50.102;20.010;2022-07-23T06:21:35;19.33;;;17.92;;
16804;SDS011;8520;50.102;20.010;2022-07-23T06:24:34;19.52;;;18.20;;
16804;SDS011;8520;50.102;20.010;2022-07-23T06:27:22;18.80;;;17.27;;
16804;SDS011;8520;50.102;20.010;2022-07-23T06:30:14;18.92;;;17.52;;
16804;SDS011;8520;50.102;20.010;2022-07-23T06:33:04;20.60;;;18.58;;
16804;SDS011;8520;50.102;20.010;2022-07-23T06:35:52;19.48;;;17.70;;
16804;SDS011;8520;50.102;20.010;2022-07-23T06:38:41;19.65;;;18.17;;
16804;SDS011;8520;50.102;20.010;2022-07-23T06:41:30;19.55;;;18.05;;
16804;SDS011;8520;50.102;20.010;2022-07-23T06:44:19;19.17;;;17.83;;
16804;SDS011;8520;50.102;20.010;2022-07-23T06:47:10;18.90;;;17.48;;
16804;SDS011;8520;50.102;20.010;2022-07-23T06:49:58;20.27;;;18.77;;
16804;SDS011;8520;50.102;20.010;2022-07-23T06:52:47;19.08;;;17.60;;
16804;SDS011;8520;50.102;20.010;2022-07-23T06:55:35;19.63;;;17.92;;
16804;SDS011;8520;50.102;20.010;2022-07-23T06:58:25;18.95;;;17.58;;
16804;SDS011;8520;50.102;20.010;2022-07-23T07:01:13;18.20;;;16.95;;
16804;SDS011;8520;50.102;20.010;2022-07-23T07:04:03;18.58;;;17.15;;
16804;SDS011;8520;50.102;20.010;2022-07-23T07:06:52;18.73;;;17.08;;
16804;SDS011;8520;50.102;20.010;2022-07-23T07:09:40;17.95;;;16.55;;
16804;SDS011;8520;50.102;20.010;2022-07-23T07:12:31;18.60;;;17.30;;
16804;SDS011;8520;50.102;20.010;2022-07-23T07:15:20;17.83;;;16.52;;
16804;SDS011;8520;50.102;20.010;2022-07-23T07:18:08;16.98;;;15.73;;
16804;SDS011;8520;50.102;20.010;2022-07-23T07:20:58;16.65;;;15.18;;
16804;SDS011;8520;50.102;20.010;2022-07-23T07:23:46;17.00;;;15.60;;
16804;SDS011;8520;50.102;20.010;2022-07-23T07:26:35;17.17;;;15.98;;
16804;SDS011;8520;50.102;20.010;2022-07-23T07:29:25;17.15;;;15.63;;
16804;SDS011;8520;50.102;20.010;2022-07-23T07:32:14;16.67;;;15.48;;
16804;SDS011;8520;50.102;20.010;2022-07-23T07:35:22;16.98;;;15.43;;
16804;SDS011;8520;50.102;20.010;2022-07-23T07:38:12;16.08;;;14.88;;
16804;SDS011;8520;50.102;20.010;2022-07-23T07:41:01;15.25;;;13.95;;
16804;SDS011;8520;50.102;20.010;2022-07-23T07:43:49;15.38;;;14.27;;
16804;SDS011;8520;50.102;20.010;2022-07-23T07:46:38;15.23;;;14.07;;
16804;SDS011;8520;50.102;20.010;2022-07-23T07:49:26;16.40;;;14.90;;
16804;SDS011;8520;50.102;20.010;2022-07-23T07:52:20;15.57;;;14.27;;
16804;SDS011;8520;50.102;20.010;2022-07-23T07:55:11;16.52;;;14.60;;
16804;SDS011;8520;50.102;20.010;2022-07-23T07:58:00;14.48;;;13.15;;
16804;SDS011;8520;50.102;20.010;2022-07-23T08:00:49;13.98;;;12.88;;
16804;SDS011;8520;50.102;20.010;2022-07-23T08:03:38;15.45;;;14.35;;
16804;SDS011;8520;50.102;20.010;2022-07-23T08:06:26;14.20;;;13.10;;
16804;SDS011;8520;50.102;20.010;2022-07-23T08:09:14;15.00;;;13.88;;
16804;SDS011;8520;50.102;20.010;2022-07-23T08:12:05;13.82;;;12.52;;
16804;SDS011;8520;50.102;20.010;2022-07-23T08:14:53;13.88;;;12.82;;
16804;SDS011;8520;50.102;20.010;2022-07-23T08:17:42;12.63;;;11.73;;
16804;SDS011;8520;50.102;20.010;2022-07-23T08:20:31;13.60;;;12.38;;
16804;SDS011;8520;50.102;20.010;2022-07-23T08:23:20;12.57;;;11.73;;
16804;SDS011;8520;50.102;20.010;2022-07-23T08:26:15;13.00;;;12.07;;
16804;SDS011;8520;50.102;20.010;2022-07-23T08:29:05;14.10;;;12.75;;
16804;SDS011;8520;50.102;20.010;2022-07-23T08:31:53;13.82;;;12.80;;
16804;SDS011;8520;50.102;20.010;2022-07-23T08:34:42;13.63;;;12.60;;
16804;SDS011;8520;50.102;20.010;2022-07-23T08:37:30;13.05;;;12.15;;
16804;SDS011;8520;50.102;20.010;2022-07-23T08:40:19;12.80;;;11.85;;
16804;SDS011;8520;50.102;20.010;2022-07-23T08:43:08;11.90;;;11.10;;
16804;SDS011;8520;50.102;20.010;2022-07-23T08:46:00;10.65;;;9.68;;
16804;SDS011;8520;50.102;20.010;2022-07-23T08:48:49;11.18;;;10.38;;
16804;SDS011;8520;50.102;20.010;2022-07-23T08:51:39;10.40;;;9.70;;
16804;SDS011;8520;50.102;20.010;2022-07-23T08:54:28;9.43;;;8.93;;
16804;SDS011;8520;50.102;20.010;2022-07-23T08:57:16;9.55;;;8.98;;
16804;SDS011;8520;50.102;20.010;2022-07-23T09:00:05;11.02;;;10.13;;
16804;SDS011;8520;50.102;20.010;2022-07-23T09:02:56;10.65;;;9.90;;
16804;SDS011;8520;50.102;20.010;2022-07-23T09:05:44;10.60;;;9.98;;
16804;SDS011;8520;50.102;20.010;2022-07-23T09:08:34;10.98;;;10.18;;
16804;SDS011;8520;50.102;20.010;2022-07-23T09:11:24;10.57;;;9.77;;
16804;SDS011;8520;50.102;20.010;2022-07-23T09:14:12;10.90;;;10.05;;
16804;SDS011;8520;50.102;20.010;2022-07-23T09:17:07;9.68;;;9.07;;
16804;SDS011;8520;50.102;20.010;2022-07-23T09:20:02;10.10;;;9.40;;
16804;SDS011;8520;50.102;20.010;2022-07-23T09:22:56;10.45;;;9.75;;
16804;SDS011;8520;50.102;20.010;2022-07-23T09:25:58;10.63;;;9.73;;
16804;SDS011;8520;50.102;20.010;2022-07-23T09:28:52;10.40;;;9.45;;
16804;SDS011;8520;50.102;20.010;2022-07-23T09:31:45;9.93;;;9.23;;
16804;SDS011;8520;50.102;20.010;2022-07-23T09:34:35;10.32;;;9.57;;
16804;SDS011;8520;50.102;20.010;2022-07-23T09:37:27;10.93;;;10.02;;
16804;SDS011;8520;50.102;20.010;2022-07-23T09:40:15;10.52;;;9.80;;
16804;SDS011;8520;50.102;20.010;2022-07-23T09:43:04;11.27;;;10.48;;
16804;SDS011;8520;50.102;20.010;2022-07-23T09:45:53;10.55;;;9.75;;
16804;SDS011;8520;50.102;20.010;2022-07-23T09:49:10;10.52;;;9.45;;
16804;SDS011;8520;50.102;20.010;2022-07-23T09:52:01;10.68;;;9.98;;
16804;SDS011;8520;50.102;20.010;2022-07-23T09:54:51;10.20;;;9.25;;
16804;SDS011;8520;50.102;20.010;2022-07-23T09:57:46;9.45;;;8.95;;
16804;SDS011;8520;50.102;20.010;2022-07-23T10:00:37;9.80;;;8.88;;
16804;SDS011;8520;50.102;20.010;2022-07-23T10:03:26;8.85;;;8.35;;
16804;SDS011;8520;50.102;20.010;2022-07-23T10:06:49;9.35;;;8.63;;
16804;SDS011;8520;50.102;20.010;2022-07-23T10:10:00;13.63;;;9.55;;
16804;SDS011;8520;50.102;20.010;2022-07-23T10:12:59;10.50;;;9.60;;
16804;SDS011;8520;50.102;20.010;2022-07-23T10:16:08;9.90;;;9.15;;
16804;SDS011;8520;50.102;20.010;2022-07-23T10:18:56;10.60;;;9.90;;
16804;SDS011;8520;50.102;20.010;2022-07-23T10:21:46;9.85;;;9.25;;
16804;SDS011;8520;50.102;20.010;2022-07-23T10:24:46;10.15;;;9.32;;
16804;SDS011;8520;50.102;20.010;2022-07-23T10:27:50;10.68;;;9.73;;
16804;SDS011;8520;50.102;20.010;2022-07-23T10:30:49;9.95;;;9.25;;
16804;SDS011;8520;50.102;20.010;2022-07-23T10:33:51;10.68;;;9.88;;
16804;SDS011;8520;50.102;20.010;2022-07-23T10:36:52;10.50;;;9.80;;
16804;SDS011;8520;50.102;20.010;2022-07-23T10:39:44;11.10;;;10.27;;
16804;SDS011;8520;50.102;20.010;2022-07-23T10:42:33;11.50;;;10.80;;
16804;SDS011;8520;50.102;20.010;2022-07-23T10:45:25;11.38;;;10.27;;
16804;SDS011;8520;50.102;20.010;2022-07-23T10:48:16;11.68;;;10.88;;
16804;SDS011;8520;50.102;20.010;2022-07-23T10:51:06;11.10;;;10.27;;
16804;SDS011;8520;50.102;20.010;2022-07-23T10:53:57;11.00;;;10.15;;
16804;SDS011;8520;50.102;20.010;2022-07-23T11:06:23;12.55;;;11.40;;
16804;SDS011;8520;50.102;20.010;2022-07-23T11:09:23;10.75;;;10.00;;
16804;SDS011;8520;50.102;20.010;2022-07-23T11:12:31;9.77;;;9.10;;
16804;SDS011;8520;50.102;20.010;2022-07-23T11:15:22;10.40;;;9.57;;
16804;SDS011;8520;50.102;20.010;2022-07-23T11:18:11;9.77;;;9.07;;
16804;SDS011;8520;50.102;20.010;2022-07-23T11:21:05;9.80;;;9.20;;
16804;SDS011;8520;50.102;20.010;2022-07-23T11:24:34;9.68;;;8.82;;
16804;SDS011;8520;50.102;20.010;2022-07-23T11:27:38;9.52;;;8.93;;
16804;SDS011;8520;50.102;20.010;2022-07-23T11:30:38;8.80;;;8.20;;
16804;SDS011;8520;50.102;20.010;2022-07-23T11:33:28;9.00;;;8.40;;
16804;SDS011;8520;50.102;20.010;2022-07-23T11:36:18;8.38;;;7.85;;
16804;SDS011;8520;50.102;20.010;2022-07-23T11:39:07;8.45;;;7.68;;
16804;SDS011;8520;50.102;20.010;2022-07-23T11:41:57;8.98;;;8.43;;
16804;SDS011;8520;50.102;20.010;2022-07-23T11:44:46;8.52;;;8.13;;
16804;SDS011;8520;50.102;20.010;2022-07-23T11:47:36;9.80;;;9.10;;
16804;SDS011;8520;50.102;20.010;2022-07-23T11:50:24;9.38;;;8.82;;
16804;SDS011;8520;50.102;20.010;2022-07-23T11:53:15;9.88;;;8.95;;
16804;SDS011;8520;50.102;20.010;2022-07-23T11:56:10;8.98;;;8.38;;
16804;SDS011;8520;50.102;20.010;2022-07-23T11:58:59;9.30;;;8.70;;
16804;SDS011;8520;50.102;20.010;2022-07-23T12:01:55;9.50;;;8.90;;
16804;SDS011;8520;50.102;20.010;2022-07-23T12:04:45;9.77;;;8.98;;
16804;SDS011;8520;50.102;20.010;2022-07-23T12:07:36;9.30;;;8.52;;
16804;SDS011;8520;50.102;20.010;2022-07-23T12:10:27;9.23;;;8.50;;
16804;SDS011;8520;50.102;20.010;2022-07-23T12:13:18;10.10;;;9.30;;
16804;SDS011;8520;50.102;20.010;2022-07-23T12:16:09;8.85;;;8.25;;
16804;SDS011;8520;50.102;20.010;2022-07-23T12:18:58;8.90;;;8.30;;
16804;SDS011;8520;50.102;20.010;2022-07-23T12:21:46;8.70;;;8.20;;
16804;SDS011;8520;50.102;20.010;2022-07-23T12:27:44;8.80;;;8.30;;
16804;SDS011;8520;50.102;20.010;2022-07-23T12:30:37;8.85;;;8.20;;
16804;SDS011;8520;50.102;20.010;2022-07-23T12:33:26;8.60;;;8.20;;
16804;SDS011;8520;50.102;20.010;2022-07-23T12:36:16;8.98;;;8.38;;
16804;SDS011;8520;50.102;20.010;2022-07-23T12:39:04;9.02;;;8.40;;
16804;SDS011;8520;50.102;20.010;2022-07-23T12:41:53;9.85;;;9.27;;
16804;SDS011;8520;50.102;20.010;2022-07-23T12:48:03;8.77;;;8.30;;
16804;SDS011;8520;50.102;20.010;2022-07-23T12:50:55;8.98;;;8.38;;
16804;SDS011;8520;50.102;20.010;2022-07-23T12:53:46;10.00;;;9.35;;
16804;SDS011;8520;50.102;20.010;2022-07-23T12:56:38;9.35;;;8.80;;
16804;SDS011;8520;50.102;20.010;2022-07-23T12:59:30;9.30;;;8.70;;
16804;SDS011;8520;50.102;20.010;2022-07-23T13:02:21;9.27;;;8.77;;
16804;SDS011;8520;50.102;20.010;2022-07-23T13:05:09;9.57;;;8.88;;
16804;SDS011;8520;50.102;20.010;2022-07-23T13:07:58;9.57;;;9.00;;
16804;SDS011;8520;50.102;20.010;2022-07-23T13:10:49;9.18;;;8.68;;
16804;SDS011;8520;50.102;20.010;2022-07-23T13:13:38;9.65;;;8.90;;
16804;SDS011;8520;50.102;20.010;2022-07-23T13:16:27;9.57;;;8.98;;
16804;SDS011;8520;50.102;20.010;2022-07-23T13:19:18;8.90;;;8.40;;
16804;SDS011;8520;50.102;20.010;2022-07-23T13:22:10;9.00;;;8.40;;
16804;SDS011;8520;50.102;20.010;2022-07-23T13:24:59;9.02;;;8.60;;
16804;SDS011;8520;50.102;20.010;2022-07-23T13:27:47;9.20;;;8.60;;
16804;SDS011;8520;50.102;20.010;2022-07-23T13:30:36;9.20;;;8.70;;
16804;SDS011;8520;50.102;20.010;2022-07-23T13:33:24;9.40;;;8.80;;
16804;SDS011;8520;50.102;20.010;2022-07-23T13:36:14;10.00;;;9.20;;
16804;SDS011;8520;50.102;20.010;2022-07-23T13:39:03;9.13;;;8.52;;
16804;SDS011;8520;50.102;20.010;2022-07-23T13:41:56;10.50;;;9.90;;
16804;SDS011;8520;50.102;20.010;2022-07-23T13:44:44;10.20;;;9.30;;
16804;SDS011;8520;50.102;20.010;2022-07-23T13:47:34;9.10;;;8.60;;
16804;SDS011;8520;50.102;20.010;2022-07-23T13:50:23;9.65;;;9.00;;
16804;SDS011;8520;50.102;20.010;2022-07-23T13:53:21;9.10;;;8.52;;
16804;SDS011;8520;50.102;20.010;2022-07-23T13:56:11;9.55;;;9.05;;
16804;SDS011;8520;50.102;20.010;2022-07-23T13:59:00;9.43;;;8.75;;
16804;SDS011;8520;50.102;20.010;2022-07-23T14:01:49;9.32;;;8.82;;
16804;SDS011;8520;50.102;20.010;2022-07-23T14:04:57;9.20;;;8.60;;
16804;SDS011;8520;50.102;20.010;2022-07-23T14:07:46;9.05;;;8.48;;
16804;SDS011;8520;50.102;20.010;2022-07-23T14:10:37;9.68;;;8.98;;
16804;SDS011;8520;50.102;20.010;2022-07-23T14:13:26;8.75;;;8.25;;
16804;SDS011;8520;50.102;20.010;2022-07-23T14:16:16;8.88;;;8.18;;
16804;SDS011;8520;50.102;20.010;2022-07-23T14:19:05;9.43;;;8.85;;
16804;SDS011;8520;50.102;20.010;2022-07-23T14:21:54;9.20;;;8.68;;
16804;SDS011;8520;50.102;20.010;2022-07-23T14:24:43;9.82;;;9.18;;
16804;SDS011;8520;50.102;20.010;2022-07-23T14:27:32;10.93;;;10.10;;
16804;SDS011;8520;50.102;20.010;2022-07-23T14:30:21;9.80;;;9.20;;
16804;SDS011;8520;50.102;20.010;2022-07-23T14:33:18;10.07;;;9.30;;
16804;SDS011;8520;50.102;20.010;2022-07-23T14:36:07;10.13;;;9.20;;
16804;SDS011;8520;50.102;20.010;2022-07-23T14:39:01;9.93;;;9.32;;
16804;SDS011;8520;50.102;20.010;2022-07-23T14:41:51;9.70;;;8.90;;
16804;SDS011;8520;50.102;20.010;2022-07-23T14:44:41;14.07;;;10.20;;
16804;SDS011;8520;50.102;20.010;2022-07-23T14:47:30;10.40;;;9.57;;
16804;SDS011;8520;50.102;20.010;2022-07-23T14:50:18;9.90;;;9.20;;
16804;SDS011;8520;50.102;20.010;2022-07-23T14:53:07;10.38;;;9.43;;
16804;SDS011;8520;50.102;20.010;2022-07-23T14:55:55;12.43;;;9.85;;
16804;SDS011;8520;50.102;20.010;2022-07-23T14:58:44;10.88;;;9.88;;
16804;SDS011;8520;50.102;20.010;2022-07-23T15:01:35;10.65;;;9.75;;
16804;SDS011;8520;50.102;20.010;2022-07-23T15:04:24;10.88;;;10.10;;
16804;SDS011;8520;50.102;20.010;2022-07-23T15:07:24;10.73;;;9.80;;
16804;SDS011;8520;50.102;20.010;2022-07-23T15:10:13;10.32;;;9.38;;
16804;SDS011;8520;50.102;20.010;2022-07-23T15:13:05;9.73;;;9.13;;
16804;SDS011;8520;50.102;20.010;2022-07-23T15:15:54;12.40;;;9.13;;
16804;SDS011;8520;50.102;20.010;2022-07-23T15:18:44;28.63;;;8.55;;
16804;SDS011;8520;50.102;20.010;2022-07-23T15:21:33;41.05;;;9.65;;
16804;SDS011;8520;50.102;20.010;2022-07-23T15:24:21;19.00;;;8.50;;
16804;SDS011;8520;50.102;20.010;2022-07-23T15:27:10;22.33;;;8.98;;
16804;SDS011;8520;50.102;20.010;2022-07-23T15:29:59;17.58;;;13.00;;
16804;SDS011;8520;50.102;20.010;2022-07-23T15:32:47;18.10;;;16.02;;
16804;SDS011;8520;50.102;20.010;2022-07-23T15:35:37;20.13;;;18.45;;
16804;SDS011;8520;50.102;20.010;2022-07-23T15:38:26;21.83;;;20.23;;
16804;SDS011;8520;50.102;20.010;2022-07-23T15:41:16;24.75;;;23.05;;
16804;SDS011;8520;50.102;20.010;2022-07-23T15:44:05;26.70;;;24.75;;
16804;SDS011;8520;50.102;20.010;2022-07-23T15:47:14;29.98;;;28.13;;
16804;SDS011;8520;50.102;20.010;2022-07-23T15:50:05;36.28;;;33.63;;
16804;SDS011;8520;50.102;20.010;2022-07-23T15:52:56;43.50;;;40.42;;
16804;SDS011;8520;50.102;20.010;2022-07-23T15:55:45;44.85;;;42.20;;
16804;SDS011;8520;50.102;20.010;2022-07-23T15:58:34;49.78;;;46.33;;
16804;SDS011;8520;50.102;20.010;2022-07-23T16:01:25;49.28;;;46.08;;
16804;SDS011;8520;50.102;20.010;2022-07-23T16:04:16;49.90;;;46.72;;
16804;SDS011;8520;50.102;20.010;2022-07-23T16:07:04;52.53;;;49.17;;
16804;SDS011;8520;50.102;20.010;2022-07-23T16:09:58;52.80;;;49.50;;
16804;SDS011;8520;50.102;20.010;2022-07-23T16:12:47;55.00;;;51.50;;
16804;SDS011;8520;50.102;20.010;2022-07-23T16:15:35;52.72;;;49.25;;
16804;SDS011;8520;50.102;20.010;2022-07-23T16:18:24;52.47;;;49.03;;
16804;SDS011;8520;50.102;20.010;2022-07-23T16:21:14;53.20;;;50.00;;
16804;SDS011;8520;50.102;20.010;2022-07-23T16:24:02;52.75;;;49.55;;
16804;SDS011;8520;50.102;20.010;2022-07-23T16:26:52;50.88;;;47.85;;
16804;SDS011;8520;50.102;20.010;2022-07-23T16:29:40;54.22;;;50.78;;
16804;SDS011;8520;50.102;20.010;2022-07-23T16:32:29;58.72;;;55.35;;
16804;SDS011;8520;50.102;20.010;2022-07-23T16:35:17;62.45;;;58.67;;
16804;SDS011;8520;50.102;20.010;2022-07-23T16:38:06;62.53;;;58.60;;
16804;SDS011;8520;50.102;20.010;2022-07-23T16:40:54;59.20;;;55.75;;
16804;SDS011;8520;50.102;20.010;2022-07-23T16:43:45;52.72;;;49.25;;
16804;SDS011;8520;50.102;20.010;2022-07-23T16:46:33;53.90;;;50.60;;
16804;SDS011;8520;50.102;20.010;2022-07-23T16:49:23;48.55;;;45.63;;
16804;SDS011;8520;50.102;20.010;2022-07-23T16:52:11;46.38;;;43.58;;
16804;SDS011;8520;50.102;20.010;2022-07-23T16:55:00;33.13;;;30.80;;
16804;SDS011;8520;50.102;20.010;2022-07-23T16:57:49;31.45;;;29.35;;
16804;SDS011;8520;50.102;20.010;2022-07-23T17:00:39;31.88;;;29.23;;
16804;SDS011;8520;50.102;20.010;2022-07-23T17:03:27;29.08;;;27.02;;